Time;durP1;ratioP1;P1;durP2;ratioP2;P2;SDS_P1;SDS_P2;PMS_P1;PMS_P2;Temp;Humidity;BMP_temperature;BMP_pressure;BME280_temperature;BME280_humidity;BME280_pressure;Samples;Min_cycle;Max_cycle;Signal;HPM_P1;HPM_P2
2021/05/13 00:02:08;;;;;;;2.45;1.55;;;12.60;99.90;;;;;;5054357;28;20370;-78
2021/05/13 00:04:33;;;;;;;4.07;1.33;;;12.50;99.90;;;;;;5053994;28;20132;-76
2021/05/13 00:06:59;;;;;;;2.15;1.38;;;12.50;99.90;;;;;;5053772;28;20025;-77
2021/05/13 00:09:25;;;;;;;3.17;1.45;;;12.50;99.90;;;;;;5053535;28;20095;-77
2021/05/13 00:11:52;;;;;;;1.30;1.10;;;12.50;99.90;;;;;;5053854;28;20035;-77
2021/05/13 00:14:18;;;;;;;2.10;0.90;;;12.40;99.90;;;;;;5053915;28;20021;-78
2021/05/13 00:16:45;;;;;;;2.60;1.00;;;12.40;99.90;;;;;;5053342;28;20055;-78
2021/05/13 00:19:13;;;;;;;1.80;1.60;;;12.50;99.90;;;;;;5053374;28;20032;-78
2021/05/13 00:21:41;;;;;;;1.48;1.00;;;12.40;99.90;;;;;;5053866;28;20044;-77
2021/05/13 00:24:09;;;;;;;1.95;1.00;;;12.50;99.90;;;;;;5053300;28;20099;-77
2021/05/13 00:26:37;;;;;;;2.45;0.90;;;12.40;99.90;;;;;;5054009;28;20025;-78
2021/05/13 00:29:05;;;;;;;1.00;0.60;;;12.40;99.90;;;;;;5052045;28;20064;-79
2021/05/13 00:31:31;;;;;;;1.33;0.90;;;12.50;99.90;;;;;;5052738;28;20025;-77
2021/05/13 00:34:00;;;;;;;1.17;0.70;;;12.40;99.90;;;;;;5053774;28;20013;-77
2021/05/13 00:36:27;;;;;;;2.08;0.63;;;12.40;99.90;;;;;;5053931;28;20115;-77
2021/05/13 00:38:53;;;;;;;0.80;0.52;;;12.30;99.90;;;;;;5053862;28;20100;-78
2021/05/13 00:41:19;;;;;;;3.72;0.60;;;12.30;99.90;;;;;;5052444;28;20120;-77
2021/05/13 00:43:44;;;;;;;1.60;0.55;;;12.30;99.90;;;;;;5053672;28;20030;-77
2021/05/13 00:46:10;;;;;;;1.98;0.55;;;12.30;99.90;;;;;;5053959;28;20398;-78
2021/05/13 00:48:39;;;;;;;3.05;0.75;;;12.30;99.90;;;;;;5053778;28;20025;-77
2021/05/13 00:51:05;;;;;;;2.80;0.93;;;12.40;99.90;;;;;;5053780;28;20213;-77
2021/05/13 00:53:30;;;;;;;2.25;0.73;;;12.40;99.90;;;;;;5053847;28;20112;-78
2021/05/13 00:55:56;;;;;;;2.30;1.30;;;12.40;99.90;;;;;;5053703;28;20491;-77
2021/05/13 00:58:27;;;;;;;3.72;1.80;;;12.50;99.90;;;;;;5053774;28;20032;-77
2021/05/13 01:01:05;;;;;;;2.85;1.00;;;12.50;99.90;;;;;;5052330;28;20124;-75
2021/05/13 01:03:34;;;;;;;1.42;0.80;;;12.40;99.90;;;;;;5053576;28;20166;-78
2021/05/13 01:06:03;;;;;;;2.47;0.60;;;12.40;99.90;;;;;;5053532;28;20036;-77
2021/05/13 01:08:29;;;;;;;1.75;0.90;;;12.30;99.90;;;;;;5053403;28;20028;-77
2021/05/13 01:10:54;;;;;;;1.33;0.65;;;12.30;99.90;;;;;;5053452;28;20056;-75
2021/05/13 01:13:23;;;;;;;1.90;0.47;;;12.30;99.90;;;;;;5053626;28;20017;-77
2021/05/13 01:15:54;;;;;;;1.92;0.75;;;12.30;99.90;;;;;;5053430;28;20468;-78
2021/05/13 01:18:25;;;;;;;2.67;0.57;;;12.30;99.90;;;;;;5052109;28;20037;-77
2021/05/13 01:20:51;;;;;;;2.80;0.43;;;12.30;99.90;;;;;;5051938;28;20028;-77
2021/05/13 01:23:17;;;;;;;1.20;0.50;;;12.30;99.90;;;;;;5053471;28;20493;-78
2021/05/13 01:25:49;;;;;;;1.35;0.50;;;12.20;99.90;;;;;;5053324;28;20009;-77
2021/05/13 01:28:16;;;;;;;1.05;0.40;;;12.20;99.90;;;;;;5053029;28;20536;-77
2021/05/13 01:30:43;;;;;;;0.95;0.47;;;12.10;99.90;;;;;;5053298;28;20029;-78
2021/05/13 01:33:11;;;;;;;1.30;0.55;;;12.10;99.90;;;;;;5053160;28;20027;-76
2021/05/13 01:35:36;;;;;;;3.47;0.50;;;12.10;99.90;;;;;;5053279;28;20017;-78
2021/05/13 01:38:13;;;;;;;0.82;0.43;;;12.10;99.90;;;;;;5052675;28;20017;-77
2021/05/13 01:40:40;;;;;;;0.77;0.45;;;12.00;99.90;;;;;;5052259;28;20503;-79
2021/05/13 01:43:06;;;;;;;0.60;0.30;;;12.10;99.90;;;;;;5051656;28;20021;-76
2021/05/13 01:45:32;;;;;;;2.53;0.60;;;12.10;99.90;;;;;;5051548;28;20503;-78
2021/05/13 01:48:03;;;;;;;0.75;0.43;;;12.10;99.90;;;;;;5051638;28;20029;-78
2021/05/13 01:50:30;;;;;;;1.73;0.47;;;12.10;99.90;;;;;;5052770;28;20065;-77
2021/05/13 01:52:57;;;;;;;1.27;0.60;;;12.00;99.90;;;;;;5051244;28;20041;-78
2021/05/13 01:55:24;;;;;;;1.67;0.68;;;12.00;99.90;;;;;;5051445;28;20028;-77
2021/05/13 01:57:49;;;;;;;1.90;0.30;;;12.00;99.90;;;;;;5052459;28;20040;-78
2021/05/13 02:00:15;;;;;;;1.85;0.47;;;12.00;99.90;;;;;;5051220;28;20029;-78
2021/05/13 02:02:44;;;;;;;0.57;0.35;;;12.00;99.90;;;;;;5051840;28;20033;-78
2021/05/13 02:05:10;;;;;;;1.95;0.40;;;12.00;99.90;;;;;;5051369;28;20025;-76
2021/05/13 02:07:36;;;;;;;1.35;0.60;;;12.00;99.90;;;;;;5050507;28;20029;-78
2021/05/13 02:10:02;;;;;;;2.45;1.00;;;12.00;99.90;;;;;;5052610;28;20021;-77
2021/05/13 02:12:28;;;;;;;1.10;0.52;;;12.00;99.90;;;;;;5052452;28;20025;-78
2021/05/13 02:14:53;;;;;;;2.67;0.60;;;11.90;99.90;;;;;;5052301;28;20159;-77
2021/05/13 02:17:19;;;;;;;1.05;0.52;;;11.90;99.90;;;;;;5052505;28;20028;-78
2021/05/13 02:19:44;;;;;;;0.80;0.50;;;11.90;99.90;;;;;;5052258;28;20357;-77
2021/05/13 02:22:10;;;;;;;0.90;0.60;;;11.90;99.90;;;;;;5052272;28;20118;-76
2021/05/13 02:24:36;;;;;;;1.40;0.52;;;11.90;99.90;;;;;;5052274;28;20103;-78
2021/05/13 02:27:01;;;;;;;2.03;0.50;;;11.90;99.90;;;;;;5052261;28;20057;-78
2021/05/13 02:29:27;;;;;;;1.10;0.60;;;11.90;99.90;;;;;;5051976;28;20384;-78
2021/05/13 02:31:52;;;;;;;1.15;0.50;;;11.80;99.90;;;;;;5051168;28;20024;-78
2021/05/13 02:34:18;;;;;;;1.23;0.50;;;11.80;99.90;;;;;;5050914;28;20021;-78
2021/05/13 02:36:44;;;;;;;2.45;0.50;;;11.80;99.90;;;;;;5052118;28;20358;-78
2021/05/13 02:39:09;;;;;;;2.03;0.85;;;11.80;99.90;;;;;;5050688;28;20025;-78
2021/05/13 02:41:35;;;;;;;1.80;0.50;;;11.80;99.90;;;;;;5052065;28;20032;-78
2021/05/13 02:44:01;;;;;;;1.30;0.50;;;11.80;99.90;;;;;;5052038;28;20028;-78
2021/05/13 02:46:26;;;;;;;5.40;0.80;;;11.80;99.90;;;;;;5051975;28;20514;-76
2021/05/13 02:48:52;;;;;;;2.35;0.68;;;11.80;99.90;;;;;;5050709;28;20349;-77
2021/05/13 02:51:18;;;;;;;2.55;0.52;;;11.80;99.90;;;;;;5051864;28;20377;-78
2021/05/13 02:53:44;;;;;;;1.48;0.47;;;11.80;99.90;;;;;;5050572;28;20021;-77
2021/05/13 02:56:09;;;;;;;5.97;0.70;;;11.80;99.90;;;;;;5050570;28;20025;-77
2021/05/13 02:58:35;;;;;;;1.27;0.50;;;11.80;99.90;;;;;;5051675;28;20017;-78
2021/05/13 03:03:57;;;;;;;2.40;0.60;;;11.80;99.90;;;;;;5047055;28;20041;-81
2021/05/13 03:06:24;;;;;;;3.75;0.68;;;11.90;99.90;;;;;;5050639;28;20128;-78
2021/05/13 03:08:57;;;;;;;1.83;0.50;;;11.80;99.90;;;;;;5052285;28;20416;-77
2021/05/13 03:11:25;;;;;;;2.83;0.80;;;11.70;99.90;;;;;;5051712;28;20032;-78
2021/05/13 03:13:54;;;;;;;3.08;0.50;;;11.70;99.90;;;;;;5051807;28;20025;-75
2021/05/13 03:16:21;;;;;;;3.47;0.60;;;11.70;99.90;;;;;;5051959;28;20021;-78
2021/05/13 03:18:50;;;;;;;3.13;1.55;;;11.60;99.90;;;;;;5051599;28;20047;-76
2021/05/13 03:21:25;;;;;;;2.15;0.60;;;11.60;99.90;;;;;;5050377;28;20040;-78
2021/05/13 03:24:03;;;;;;;2.42;0.70;;;11.60;99.90;;;;;;5051752;28;20017;-76
2021/05/13 03:27:27;;;;;;;2.88;0.55;;;11.60;99.90;;;;;;5050414;28;20086;-76
2021/05/13 03:29:16;;;;;;;4.57;0.88;;;11.60;99.90;;;;;;5047206;28;20087;-78
2021/05/13 03:31:42;;;;;;;1.02;0.50;;;11.50;99.90;;;;;;5051495;28;20025;-78
2021/05/13 03:34:07;;;;;;;1.05;0.60;;;11.60;99.90;;;;;;5052017;28;20468;-77
2021/05/13 03:36:34;;;;;;;2.85;0.75;;;11.50;99.90;;;;;;5051656;28;20401;-78
2021/05/13 03:39:01;;;;;;;1.25;0.70;;;11.50;99.90;;;;;;5051665;28;20032;-79
2021/05/13 03:41:27;;;;;;;2.45;0.70;;;11.50;99.90;;;;;;5051520;28;20029;-77
2021/05/13 03:43:53;;;;;;;1.08;0.63;;;11.40;99.90;;;;;;5051601;28;20021;-77
2021/05/13 03:46:18;;;;;;;2.05;0.75;;;11.40;99.90;;;;;;5051306;28;20033;-76
2021/05/13 03:48:44;;;;;;;2.45;0.50;;;11.40;99.90;;;;;;5051481;28;20464;-78
2021/05/13 03:51:09;;;;;;;0.93;0.30;;;11.40;99.90;;;;;;5050296;28;20025;-78
2021/05/13 03:53:35;;;;;;;4.32;0.50;;;11.40;99.90;;;;;;5051503;28;20033;-77
2021/05/13 03:56:01;;;;;;;1.33;0.65;;;11.40;99.90;;;;;;5051511;28;20029;-78
2021/05/13 03:58:31;;;;;;;3.10;0.60;;;11.40;99.90;;;;;;5051244;28;20029;-77
2021/05/13 04:03:22;;;;;;;0.82;0.50;;;11.40;99.90;;;;;;5051225;28;20104;-77
2021/05/13 04:05:48;;;;;;;2.05;0.52;;;11.40;99.90;;;;;;5054589;28;20490;-77
2021/05/13 04:08:14;;;;;;;1.92;0.50;;;11.40;99.90;;;;;;5054862;28;20438;-77
2021/05/13 04:10:43;;;;;;;1.35;0.60;;;11.40;99.90;;;;;;5053498;28;20158;-78
2021/05/13 04:13:13;;;;;;;2.15;0.40;;;11.40;99.90;;;;;;5054522;28;20064;-79
2021/05/13 04:15:42;;;;;;;1.75;0.30;;;11.40;99.90;;;;;;5054926;28;20049;-78
2021/05/13 04:18:07;;;;;;;2.55;0.40;;;11.50;99.90;;;;;;5054631;28;20491;-78
2021/05/13 04:20:33;;;;;;;1.95;0.50;;;11.40;99.90;;;;;;5054465;28;20021;-79
2021/05/13 04:22:59;;;;;;;0.75;0.47;;;11.40;99.90;;;;;;5054519;28;20086;-77
2021/05/13 04:25:24;;;;;;;1.30;0.70;;;11.40;99.90;;;;;;5053174;28;20033;-77
2021/05/13 04:27:50;;;;;;;4.95;1.00;;;11.50;99.90;;;;;;5054256;28;20025;-77
2021/05/13 04:30:16;;;;;;;2.58;0.50;;;11.40;99.90;;;;;;5054106;28;20047;-77
2021/05/13 04:32:42;;;;;;;0.90;0.70;;;11.40;99.90;;;;;;5054237;28;20231;-77
2021/05/13 04:35:08;;;;;;;1.10;0.55;;;11.40;99.90;;;;;;5054242;28;20025;-76
2021/05/13 04:37:34;;;;;;;2.40;0.47;;;11.50;99.90;;;;;;5052901;28;20025;-77
2021/05/13 04:39:59;;;;;;;1.77;1.10;;;11.50;99.90;;;;;;5052591;28;20025;-76
2021/05/13 04:42:25;;;;;;;1.08;0.50;;;11.50;99.90;;;;;;5053949;28;20040;-76
2021/05/13 04:44:53;;;;;;;1.65;0.80;;;11.60;99.90;;;;;;5052865;28;20028;-78
2021/05/13 04:47:24;;;;;;;2.70;2.00;;;11.60;99.90;;;;;;5053586;28;20468;-77
2021/05/13 04:49:52;;;;;;;5.90;4.57;;;11.60;99.90;;;;;;5053782;28;20051;-74
2021/05/13 04:52:19;;;;;;;7.78;5.53;;;11.60;99.90;;;;;;5055926;28;20017;-75
2021/05/13 04:54:50;;;;;;;4.50;2.42;;;12.90;99.90;;;;;;5058473;28;20382;-75
2021/05/13 04:57:17;;;;;;;5.20;2.20;;;13.60;99.90;;;;;;5052596;28;20013;-76
2021/05/13 04:59:43;;;;;;;2.70;1.35;;;13.80;99.90;;;;;;5052673;28;20048;-74
2021/05/13 05:02:08;;;;;;;2.58;0.90;;;14.30;99.90;;;;;;5053830;28;20047;-74
2021/05/13 05:04:34;;;;;;;2.20;1.10;;;14.00;99.90;;;;;;5052285;28;20108;-75
2021/05/13 05:06:59;;;;;;;4.68;1.30;;;13.70;99.90;;;;;;5053677;28;20100;-74
2021/05/13 05:09:25;;;;;;;2.28;0.90;;;13.60;99.90;;;;;;5053296;28;20417;-75
2021/05/13 05:11:51;;;;;;;2.20;1.20;;;13.60;99.90;;;;;;5053564;28;20028;-75
2021/05/13 05:14:17;;;;;;;4.07;1.50;;;13.60;99.90;;;;;;5053689;28;20508;-74
2021/05/13 05:16:43;;;;;;;6.13;2.60;;;13.90;99.90;;;;;;5052077;28;20105;-74
2021/05/13 05:19:09;;;;;;;3.38;1.80;;;13.80;99.90;;;;;;5052378;28;20045;-75
2021/05/13 05:21:34;;;;;;;0.60;0.28;;;13.90;99.90;;;;;;5052050;28;20132;-74
2021/05/13 05:24:00;;;;;;;8.48;3.03;;;13.80;99.90;;;;;;5053559;28;20025;-75
2021/05/13 05:26:26;;;;;;;5.53;2.95;;;13.90;99.90;;;;;;5053447;28;20033;-77
2021/05/13 05:28:53;;;;;;;7.10;3.83;;;13.40;99.90;;;;;;5053443;28;20120;-78
2021/05/13 05:31:19;;;;;;;5.35;3.78;;;13.10;99.90;;;;;;5052320;28;20112;-75
2021/05/13 05:33:44;;;;;;;2.35;1.48;;;12.80;99.90;;;;;;5052254;28;20779;-78
2021/05/13 05:36:10;;;;;;;1.58;0.65;;;12.60;99.90;;;;;;5053678;28;20082;-77
2021/05/13 05:38:36;;;;;;;2.05;0.60;;;12.50;99.90;;;;;;5053373;28;20376;-77
2021/05/13 05:41:02;;;;;;;2.40;0.90;;;12.40;99.90;;;;;;5053196;28;20469;-76
2021/05/13 05:43:27;;;;;;;3.90;1.10;;;12.30;99.90;;;;;;5053475;28;20036;-83
2021/05/13 05:45:53;;;;;;;2.00;0.80;;;12.30;99.90;;;;;;5053452;28;20027;-78
2021/05/13 05:48:19;;;;;;;1.75;1.02;;;12.30;99.90;;;;;;5051941;28;20480;-77
2021/05/13 05:50:44;;;;;;;3.00;0.63;;;12.30;99.90;;;;;;5053100;28;20048;-75
2021/05/13 05:53:11;;;;;;;2.88;0.63;;;12.40;99.90;;;;;;5051646;28;20040;-77
2021/05/13 05:55:38;;;;;;;0.95;0.50;;;12.30;99.90;;;;;;5052722;28;20090;-77
2021/05/13 05:58:04;;;;;;;1.15;0.70;;;12.30;99.90;;;;;;5051090;28;20028;-78
2021/05/13 06:00:30;;;;;;;1.42;0.90;;;12.40;99.90;;;;;;5052554;28;20355;-79
2021/05/13 06:02:56;;;;;;;1.30;0.80;;;12.40;99.90;;;;;;5052048;28;20041;-77
2021/05/13 06:05:21;;;;;;;2.03;1.00;;;12.40;99.90;;;;;;5052274;28;20041;-76
2021/05/13 06:07:47;;;;;;;3.90;1.25;;;12.50;99.90;;;;;;5051067;28;20486;-78
2021/05/13 06:10:14;;;;;;;1.27;0.80;;;12.50;99.90;;;;;;5051072;28;20028;-78
2021/05/13 06:12:41;;;;;;;2.20;0.50;;;12.50;99.90;;;;;;5050922;28;20025;-80
2021/05/13 06:15:14;;;;;;;2.35;0.52;;;12.60;99.90;;;;;;5050736;28;20032;-78
2021/05/13 06:17:40;;;;;;;1.45;0.68;;;12.60;99.90;;;;;;5052205;28;20364;-78
2021/05/13 06:20:09;;;;;;;0.90;0.50;;;12.60;99.90;;;;;;5052364;28;20017;-77
2021/05/13 06:22:35;;;;;;;3.70;0.45;;;12.70;99.90;;;;;;5051202;28;20037;-81
2021/05/13 06:25:00;;;;;;;1.70;0.40;;;12.70;99.90;;;;;;5052218;28;20032;-77
2021/05/13 06:27:26;;;;;;;1.30;0.38;;;12.80;99.90;;;;;;5050817;28;20430;-79
2021/05/13 06:29:52;;;;;;;1.95;0.40;;;12.70;99.90;;;;;;5050576;28;20380;-77
2021/05/13 06:32:18;;;;;;;14.13;1.63;;;12.80;99.90;;;;;;5052085;28;20029;-79
2021/05/13 06:34:44;;;;;;;1.73;0.52;;;13.10;99.90;;;;;;5051289;28;20052;-78
2021/05/13 06:37:10;;;;;;;0.90;0.43;;;13.70;99.90;;;;;;5052307;28;20021;-76
2021/05/13 06:39:36;;;;;;;1.50;0.50;;;13.80;99.90;;;;;;5051998;28;20032;-78
2021/05/13 06:42:04;;;;;;;0.73;0.40;;;13.60;99.90;;;;;;5050756;28;20037;-78
2021/05/13 06:44:31;;;;;;;0.98;0.40;;;13.50;99.90;;;;;;5052044;28;20418;-79
2021/05/13 06:46:57;;;;;;;1.00;0.43;;;13.50;99.90;;;;;;5051004;28;20107;-78
2021/05/13 06:49:22;;;;;;;1.33;0.20;;;13.50;99.90;;;;;;5052659;28;20084;-79
2021/05/13 06:51:48;;;;;;;3.38;0.50;;;13.60;99.90;;;;;;5050948;28;20029;-81
2021/05/13 06:54:14;;;;;;;0.60;0.30;;;13.60;99.90;;;;;;5052036;28;20421;-81
2021/05/13 06:56:41;;;;;;;4.25;1.60;;;13.60;99.90;;;;;;5052357;28;20037;-82
2021/05/13 06:59:07;;;;;;;2.97;2.30;;;13.70;99.90;;;;;;5051787;28;20029;-81
2021/05/13 07:01:34;;;;;;;1.83;1.00;;;13.70;99.90;;;;;;5051737;28;20036;-79
2021/05/13 07:04:00;;;;;;;1.35;0.65;;;13.70;99.90;;;;;;5052305;28;20056;-82
2021/05/13 07:06:26;;;;;;;1.60;0.40;;;13.70;99.90;;;;;;5051195;28;20064;-78
2021/05/13 07:08:51;;;;;;;3.00;0.90;;;13.80;99.90;;;;;;5050924;28;20021;-81
2021/05/13 07:11:17;;;;;;;2.38;1.48;;;13.90;99.90;;;;;;5052000;28;20029;-84
2021/05/13 07:13:42;;;;;;;5.32;2.20;;;14.00;99.90;;;;;;5052069;28;20017;-80
2021/05/13 07:16:08;;;;;;;4.03;1.80;;;14.10;99.90;;;;;;5052074;28;20032;-83
2021/05/13 07:18:34;;;;;;;1.55;0.98;;;14.30;99.90;;;;;;5050502;28;20028;-80
2021/05/13 07:20:59;;;;;;;2.20;0.40;;;14.40;99.90;;;;;;5050448;28;20040;-80
2021/05/13 07:23:25;;;;;;;1.08;0.70;;;14.50;99.90;;;;;;5050511;28;20021;-79
2021/05/13 07:25:52;;;;;;;1.42;0.70;;;14.50;99.90;;;;;;5050498;28;20400;-80
2021/05/13 07:28:18;;;;;;;1.77;0.88;;;14.60;99.90;;;;;;5051617;28;20041;-79
2021/05/13 07:30:44;;;;;;;1.10;0.35;;;14.70;99.90;;;;;;5051438;28;20025;-81
2021/05/13 07:33:10;;;;;;;2.08;0.30;;;14.90;99.90;;;;;;5050479;28;20027;-80
2021/05/13 07:35:36;;;;;;;2.25;0.52;;;15.00;99.90;;;;;;5051475;28;20036;-81
2021/05/13 07:38:02;;;;;;;1.02;0.63;;;15.20;99.90;;;;;;5051555;28;20029;-82
2021/05/13 07:40:28;;;;;;;1.98;0.40;;;15.40;99.90;;;;;;5054505;28;20354;-82
2021/05/13 07:42:54;;;;;;;0.82;0.57;;;15.70;99.90;;;;;;5053972;28;20381;-79
2021/05/13 07:45:20;;;;;;;0.40;0.20;;;15.90;99.90;;;;;;5054194;28;20017;-82
2021/05/13 07:47:47;;;;;;;1.02;0.10;;;15.90;99.10;;;;;;5055190;28;20467;-83
2021/05/13 07:50:21;;;;;;;2.05;0.20;;;16.00;99.70;;;;;;5053815;28;20025;-80
2021/05/13 07:52:48;;;;;;;0.30;0.10;;;15.90;99.30;;;;;;5054050;28;20056;-81
2021/05/13 07:55:16;;;;;;;0.50;0.20;;;15.90;99.50;;;;;;5053930;28;20095;-83
2021/05/13 07:57:43;;;;;;;0.93;0.10;;;16.00;98.10;;;;;;5055008;28;20017;-81
2021/05/13 08:00:10;;;;;;;0.45;0.20;;;15.90;98.10;;;;;;5055177;28;20032;-81
2021/05/13 08:02:36;;;;;;;0.32;0.13;;;15.90;98.40;;;;;;5053566;28;20029;-83
2021/05/13 08:05:01;;;;;;;1.50;0.10;;;16.00;99.10;;;;;;5053765;28;20028;-82
2021/05/13 08:07:27;;;;;;;1.20;0.20;;;16.10;99.60;;;;;;5054891;28;20075;-82
2021/05/13 08:09:53;;;;;;;3.08;0.20;;;16.20;97.40;;;;;;5053540;28;20430;-82
2021/05/13 08:12:19;;;;;;;0.25;0.10;;;16.20;97.00;;;;;;5054765;28;20028;-82
2021/05/13 08:14:45;;;;;;;1.08;0.10;;;16.10;97.40;;;;;;5053651;28;20032;-81
2021/05/13 08:17:11;;;;;;;1.08;0.70;;;16.10;96.80;;;;;;5054576;28;20372;-80
2021/05/13 08:19:38;;;;;;;0.30;0.10;;;16.20;97.10;;;;;;5054483;28;20029;-81
2021/05/13 08:22:04;;;;;;;0.35;0.10;;;16.10;96.50;;;;;;5053347;28;20041;-81
2021/05/13 08:24:30;;;;;;;1.92;0.25;;;16.00;97.50;;;;;;5053314;28;20029;-80
2021/05/13 08:26:58;;;;;;;1.58;0.20;;;15.90;97.50;;;;;;5053289;28;20072;-83
2021/05/13 08:29:25;;;;;;;1.35;0.10;;;15.80;97.20;;;;;;5054063;28;20041;-82
2021/05/13 08:31:50;;;;;;;0.90;0.60;;;15.60;97.40;;;;;;5053204;28;20031;-81
2021/05/13 08:34:16;;;;;;;0.47;0.20;;;15.70;98.40;;;;;;5053134;28;20021;-80
2021/05/13 08:36:42;;;;;;;0.73;0.38;;;15.70;97.40;;;;;;5054616;28;20108;-85
2021/05/13 08:39:07;;;;;;;0.30;0.15;;;15.70;97.90;;;;;;5054216;28;20522;-83
2021/05/13 08:41:34;;;;;;;0.30;0.13;;;15.60;97.80;;;;;;5053068;28;20044;-85
2021/05/13 08:44:00;;;;;;;0.68;0.25;;;15.60;96.30;;;;;;5052898;28;20032;-81
2021/05/13 08:46:25;;;;;;;1.17;0.10;;;15.60;97.40;;;;;;5054093;28;20437;-81
2021/05/13 08:48:51;;;;;;;0.93;0.17;;;15.60;96.60;;;;;;5052789;28;20029;-80
2021/05/13 08:51:18;;;;;;;0.30;0.30;;;15.80;98.00;;;;;;5053732;28;20029;-79
2021/05/13 08:53:48;;;;;;;0.45;0.20;;;15.80;96.60;;;;;;5052654;28;20361;-84
2021/05/13 08:56:14;;;;;;;0.40;0.10;;;15.90;96.60;;;;;;5053909;28;20044;-81
2021/05/13 08:58:41;;;;;;;2.80;2.13;;;15.90;96.90;;;;;;5053731;28;20464;-79
2021/05/13 09:01:08;;;;;;;0.65;0.40;;;15.80;96.90;;;;;;5053840;28;20037;-81
2021/05/13 09:03:37;;;;;;;32.42;27.15;;;15.90;97.70;;;;;;5052693;28;20025;-81
2021/05/13 09:06:07;;;;;;;2.28;1.80;;;16.00;96.30;;;;;;5054036;28;20024;-80
2021/05/13 09:08:33;;;;;;;3.08;2.03;;;15.90;95.60;;;;;;5052511;28;20094;-81
2021/05/13 09:11:13;;;;;;;0.57;0.20;;;15.80;96.20;;;;;;5054066;28;20020;-85
2021/05/13 09:13:40;;;;;;;4.45;3.25;;;15.90;95.40;;;;;;5052524;28;20132;-83
2021/05/13 09:16:47;;;;;;;2.55;1.85;;;16.00;96.00;;;;;;5052969;28;20457;-80
2021/05/13 09:19:34;;;;;;;26.40;16.88;;;16.00;96.00;;;;;;5014910;28;20025;-80
2021/05/13 09:22:07;;;;;;;2.28;1.40;;;16.00;96.40;;;;;;5015408;28;20118;-80
2021/05/13 09:24:49;;;;;;;28.77;18.73;;;16.00;96.50;;;;;;5047064;28;20400;-80
2021/05/13 09:27:16;;;;;;;3.83;3.35;;;16.10;96.30;;;;;;5052073;28;20093;-80
2021/05/13 09:29:42;;;;;;;29.67;17.25;;;16.00;95.10;;;;;;5053048;28;20058;-81
2021/05/13 09:32:20;;;;;;;4.05;2.50;;;16.10;95.90;;;;;;5052879;28;20108;-82
2021/05/13 09:34:46;;;;;;;1.35;0.40;;;16.10;94.70;;;;;;5052147;28;20340;-81
2021/05/13 09:37:11;;;;;;;1.63;0.70;;;16.20;94.60;;;;;;5051943;28;20032;-80
2021/05/13 09:39:45;;;;;;;1.42;0.60;;;16.20;95.40;;;;;;5051731;28;20033;-81
2021/05/13 09:42:11;;;;;;;1.42;0.20;;;16.30;93.90;;;;;;5051687;28;20076;-80
2021/05/13 09:44:38;;;;;;;4.43;2.70;;;16.30;94.60;;;;;;5051675;28;20072;-79
2021/05/13 09:47:19;;;;;;;1.33;0.75;;;16.50;94.40;;;;;;5051647;28;20021;-79
2021/05/13 09:50:08;;;;;;;1.55;1.20;;;16.50;94.50;;;;;;5052648;28;20024;-80
2021/05/13 09:52:45;;;;;;;13.15;10.85;;;16.60;94.00;;;;;;5050971;28;20488;-80
2021/05/13 09:55:18;;;;;;;5.15;3.10;;;16.70;95.00;;;;;;5051230;28;20047;-82
2021/05/13 09:58:06;;;;;;;6.60;3.97;;;16.80;95.50;;;;;;5052418;28;20090;-78
2021/05/13 10:00:39;;;;;;;5.28;1.70;;;16.70;95.00;;;;;;5050834;28;20028;-81
2021/05/13 10:03:17;;;;;;;24.38;16.17;;;16.80;95.00;;;;;;5050276;28;20488;-80
2021/05/13 10:05:52;;;;;;;10.45;6.85;;;16.80;94.30;;;;;;5052126;28;20017;-79
2021/05/13 10:08:18;;;;;;;;;;;16.90;94.90;;;;;;5052529;28;20021;-78
2021/05/13 10:10:44;;;;;;;;;;;16.90;93.30;;;;;;5051174;28;19916;-78
2021/05/13 10:13:11;;;;;;;2.10;1.33;;;16.90;93.40;;;;;;5050975;28;19999;-78
2021/05/13 10:15:40;;;;;;;1.42;0.60;;;17.10;93.80;;;;;;5050752;28;20032;-80
2021/05/13 10:18:14;;;;;;;1.60;1.10;;;17.10;94.10;;;;;;5051965;28;20025;-79
2021/05/13 10:20:40;;;;;;;0.85;0.35;;;17.20;94.20;;;;;;5050215;28;20124;-78
2021/05/13 10:23:06;;;;;;;0.40;0.20;;;17.30;91.40;;;;;;5052119;28;20599;-80
2021/05/13 10:25:34;;;;;;;0.22;0.10;;;17.40;94.40;;;;;;5051662;28;20063;-77
2021/05/13 10:28:04;;;;;;;0.63;0.20;;;17.40;93.20;;;;;;5051619;28;20017;-78
2021/05/13 10:30:34;;;;;;;0.88;0.68;;;17.60;94.00;;;;;;5051814;28;20042;-80
2021/05/13 10:33:09;;;;;;;1.38;0.30;;;18.00;93.30;;;;;;5050079;28;20021;-80
2021/05/13 10:35:35;;;;;;;0.63;0.03;;;18.10;90.50;;;;;;5050574;28;20031;-77
2021/05/13 10:38:06;;;;;;;0.73;0.50;;;17.90;89.80;;;;;;5050258;28;20039;-79
2021/05/13 10:40:47;;;;;;;1.95;0.10;;;18.10;90.00;;;;;;5050280;28;20037;-80
2021/05/13 10:43:13;;;;;;;4.32;0.45;;;18.00;88.40;;;;;;5050372;28;20029;-78
2021/05/13 10:45:43;;;;;;;0.73;0.20;;;18.10;90.50;;;;;;5050322;28;20112;-79
2021/05/13 10:48:26;;;;;;;1.40;0.30;;;18.20;88.90;;;;;;5050254;28;20376;-79
2021/05/13 10:50:52;;;;;;;0.10;0.00;;;18.40;90.30;;;;;;5050208;28;20128;-78
2021/05/13 10:56:11;;;;;;;0.70;0.22;;;17.90;88.80;;;;;;5051461;28;20688;-79
2021/05/13 10:58:59;;;;;;;0.28;0.08;;;17.80;87.20;;;;;;5050044;28;20108;-81
2021/05/13 11:01:44;;;;;;;0.40;0.10;;;17.90;90.40;;;;;;5050046;28;20037;-79
2021/05/13 11:07:00;;;;;;;1.48;0.52;;;18.20;90.70;;;;;;5051209;28;20044;-77
2021/05/13 11:09:38;;;;;;;0.40;0.17;;;18.30;90.60;;;;;;5051270;28;20053;-80
2021/05/13 11:12:17;;;;;;;0.55;0.20;;;18.30;91.10;;;;;;5049829;28;20025;-77
2021/05/13 11:20:29;;;;;;;4.63;0.50;;;18.30;90.80;;;;;;5055579;28;20203;-79
2021/05/13 11:23:03;;;;;;;1.63;0.20;;;18.20;91.00;;;;;;5055235;28;20036;-79
2021/05/13 11:25:41;;;;;;;0.30;0.20;;;18.10;91.30;;;;;;5055165;28;20051;-80
2021/05/13 11:28:26;;;;;;;0.20;0.10;;;18.20;91.20;;;;;;5053615;28;20047;-82
2021/05/13 11:31:08;;;;;;;1.60;0.10;;;18.20;89.80;;;;;;5053870;28;20039;-78
2021/05/13 11:33:43;;;;;;;0.30;0.10;;;18.10;91.60;;;;;;5055262;28;20111;-78
2021/05/13 11:36:11;;;;;;;0.50;0.30;;;18.20;90.50;;;;;;5053249;28;20025;-78
2021/05/13 11:38:37;;;;;;;0.47;0.13;;;18.50;97.80;;;;;;5053885;28;20373;-78
2021/05/13 11:41:04;;;;;;;0.63;0.10;;;18.50;91.10;;;;;;5054535;28;20568;-79
2021/05/13 11:43:35;;;;;;;1.35;0.80;;;18.60;90.60;;;;;;5055757;28;20025;-79
2021/05/13 11:46:03;;;;;;;0.35;0.20;;;18.70;88.50;;;;;;5056140;28;20017;-79
2021/05/13 11:48:29;;;;;;;0.45;0.20;;;18.80;90.20;;;;;;5054644;28;20021;-77
2021/05/13 11:51:03;;;;;;;0.55;0.32;;;18.90;88.80;;;;;;5053857;28;20022;-78
2021/05/13 11:53:30;;;;;;;0.28;0.10;;;18.70;88.20;;;;;;5055073;28;20021;-82
2021/05/13 11:55:56;;;;;;;0.55;0.10;;;18.60;87.30;;;;;;5055110;28;20035;-86
2021/05/13 11:58:45;;;;;;;0.20;0.05;;;18.50;88.70;;;;;;5053765;28;20056;-80
2021/05/13 12:01:22;;;;;;;0.60;0.17;;;18.50;90.40;;;;;;5054277;28;20044;-78
2021/05/13 12:04:12;;;;;;;0.30;0.10;;;18.50;89.20;;;;;;5053241;28;20083;-81
2021/05/13 12:06:44;;;;;;;1.10;0.10;;;18.40;88.20;;;;;;5053114;28;20063;-79
2021/05/13 12:09:11;;;;;;;1.95;0.47;;;18.40;86.00;;;;;;5053138;28;20028;-80
2021/05/13 12:11:37;;;;;;;0.77;0.50;;;18.40;87.80;;;;;;5053194;28;20025;-79
2021/05/13 12:14:07;;;;;;;1.33;0.00;;;18.50;90.70;;;;;;5053875;28;20036;-78
2021/05/13 12:16:34;;;;;;;2.05;0.32;;;18.70;89.50;;;;;;5054875;28;20017;-81
2021/05/13 12:19:05;;;;;;;0.70;0.13;;;18.60;90.20;;;;;;5054388;28;20032;-79
2021/05/13 12:21:35;;;;;;;0.75;0.10;;;18.70;91.40;;;;;;5054597;28;20040;-78
2021/05/13 12:24:01;;;;;;;3.55;0.32;;;18.70;91.90;;;;;;5054102;28;20024;-80
2021/05/13 12:26:32;;;;;;;2.50;0.20;;;18.70;92.20;;;;;;5052393;28;20029;-79
2021/05/13 12:28:59;;;;;;;0.95;0.10;;;18.80;89.90;;;;;;5053107;28;20072;-80
2021/05/13 12:31:36;;;;;;;1.27;0.00;;;18.80;91.10;;;;;;5054787;28;20104;-81
2021/05/13 12:34:05;;;;;;;0.20;0.00;;;18.90;89.50;;;;;;5047771;28;20792;-77
2021/05/13 12:36:32;;;;;;;0.47;0.15;;;18.90;90.00;;;;;;5040044;28;20343;-81
2021/05/13 12:38:59;;;;;;;1.65;0.10;;;18.80;86.30;;;;;;5032555;28;20021;-78
2021/05/13 12:41:26;;;;;;;0.10;0.00;;;18.80;87.10;;;;;;5048032;28;20033;-80
2021/05/13 12:44:17;;;;;;;0.40;0.08;;;18.60;86.00;;;;;;5053884;28;20518;-81
2021/05/13 12:46:44;;;;;;;1.50;0.10;;;18.60;86.20;;;;;;5053157;28;20021;-78
2021/05/13 12:49:29;;;;;;;4.03;2.10;;;18.60;83.90;;;;;;5053841;28;20056;-79
2021/05/13 12:52:08;;;;;;;1.27;0.10;;;18.50;86.80;;;;;;5054202;28;20032;-80
2021/05/13 12:54:42;;;;;;;0.95;0.10;;;18.40;89.20;;;;;;5054576;28;20036;-78
2021/05/13 12:57:19;;;;;;;2.15;0.10;;;18.50;90.30;;;;;;5052821;28;20029;-80
2021/05/13 12:59:50;;;;;;;0.82;0.08;;;18.50;90.00;;;;;;5053669;28;20094;-79
2021/05/13 13:02:28;;;;;;;0.77;0.00;;;18.50;90.00;;;;;;5052458;28;20029;-79
2021/05/13 13:04:56;;;;;;;1.23;0.20;;;18.50;90.30;;;;;;5054150;28;20021;-82
2021/05/13 13:07:45;;;;;;;5.00;0.68;;;18.30;88.30;;;;;;5052968;28;20430;-79
2021/05/13 13:10:33;;;;;;;2.15;0.30;;;18.20;90.20;;;;;;5035245;28;20094;-79
2021/05/13 13:13:00;;;;;;;0.20;0.10;;;18.00;89.50;;;;;;5052105;28;20029;-80